Time;durP1;ratioP1;P1;durP2;ratioP2;P2;SDS_P1;SDS_P2;PMS_P1;PMS_P2;Temp;Humidity;BMP_temperature;BMP_pressure;BME280_temperature;BME280_humidity;BME280_pressure;Samples;Min_cycle;Max_cycle;Signal;HPM_P1;HPM_P2
2021/06/28 00:00:20;;;;;;;10.67;7.67;;;19.30;99.90;;;;;;5024766;28;20261;-74
2021/06/28 00:02:46;;;;;;;8.07;7.37;;;19.30;99.90;;;;;;5013881;28;20222;-74
2021/06/28 00:05:14;;;;;;;8.83;8.03;;;19.30;99.90;;;;;;5013839;28;20419;-74
2021/06/28 00:07:42;;;;;;;8.70;7.87;;;19.30;99.90;;;;;;5014207;28;20276;-74
2021/06/28 00:10:10;;;;;;;9.27;8.37;;;19.30;99.90;;;;;;5013745;28;20504;-74
2021/06/28 00:12:36;;;;;;;8.50;7.80;;;19.30;99.90;;;;;;5013666;28;20952;-74
2021/06/28 00:15:11;;;;;;;9.17;8.33;;;19.30;99.90;;;;;;5012588;28;20431;-74
2021/06/28 00:17:37;;;;;;;8.70;7.97;;;19.30;99.90;;;;;;5013392;28;20443;-74
2021/06/28 00:20:05;;;;;;;8.70;7.80;;;19.30;99.90;;;;;;5013408;28;20885;-74
2021/06/28 00:22:31;;;;;;;9.07;8.20;;;19.30;99.90;;;;;;5013566;28;20252;-74
2021/06/28 00:24:56;;;;;;;10.03;9.03;;;19.30;99.90;;;;;;5014540;28;20511;-74
2021/06/28 00:27:23;;;;;;;9.00;8.20;;;19.30;99.90;;;;;;5013397;28;20171;-74
2021/06/28 00:29:49;;;;;;;11.87;10.83;;;19.20;99.90;;;;;;5013197;28;20259;-74
2021/06/28 00:32:15;;;;;;;12.23;11.23;;;19.10;99.90;;;;;;5013642;28;20404;-74
2021/06/28 00:34:40;;;;;;;12.93;11.93;;;19.10;99.90;;;;;;5013115;28;20884;-74
2021/06/28 00:37:06;;;;;;;11.50;10.37;;;19.00;99.90;;;;;;5013313;28;20669;-74
2021/06/28 00:39:31;;;;;;;10.30;9.37;;;18.90;99.90;;;;;;5013517;28;20195;-74
2021/06/28 00:41:57;;;;;;;9.30;8.50;;;18.90;99.90;;;;;;5020328;28;20185;-74
2021/06/28 00:44:22;;;;;;;9.63;8.83;;;18.90;99.90;;;;;;5032992;28;20171;-74
2021/06/28 00:46:48;;;;;;;10.10;9.30;;;18.80;99.90;;;;;;5032683;28;20259;-74
2021/06/28 00:49:14;;;;;;;9.33;8.53;;;18.80;99.90;;;;;;5032539;28;20223;-74
2021/06/28 00:51:39;;;;;;;10.10;9.20;;;18.80;99.90;;;;;;5032919;28;20235;-74
2021/06/28 00:54:06;;;;;;;9.60;8.80;;;18.70;99.90;;;;;;5033100;28;20157;-74
2021/06/28 00:56:31;;;;;;;9.17;8.37;;;18.70;99.90;;;;;;5032848;28;20197;-74
2021/06/28 00:58:59;;;;;;;9.30;8.50;;;18.70;99.90;;;;;;5031579;28;20459;-74
2021/06/28 01:01:25;;;;;;;11.33;8.87;;;18.70;99.90;;;;;;5014450;28;20583;-74
2021/06/28 01:03:50;;;;;;;10.33;9.43;;;18.70;99.90;;;;;;5012557;28;20447;-74
2021/06/28 01:06:16;;;;;;;9.87;8.97;;;18.70;99.90;;;;;;5012713;28;20165;-74
2021/06/28 01:08:42;;;;;;;10.53;9.10;;;18.70;99.90;;;;;;5013383;28;20170;-74
2021/06/28 01:11:08;;;;;;;10.50;9.57;;;18.70;99.90;;;;;;5012401;28;20200;-74
2021/06/28 01:13:36;;;;;;;9.53;8.73;;;18.70;99.90;;;;;;5012537;28;20392;-74
2021/06/28 01:16:03;;;;;;;10.00;9.10;;;18.70;99.90;;;;;;5013002;28;20189;-74
2021/06/28 01:18:30;;;;;;;8.60;7.80;;;18.70;99.90;;;;;;5012683;28;20408;-74
2021/06/28 01:20:57;;;;;;;9.50;8.70;;;18.60;99.90;;;;;;5012549;28;20491;-74
2021/06/28 01:23:24;;;;;;;9.50;8.60;;;18.60;99.90;;;;;;5013064;28;20415;-74
2021/06/28 01:25:53;;;;;;;10.53;9.63;;;18.60;99.90;;;;;;5012328;28;20756;-74
2021/06/28 01:28:19;;;;;;;10.17;9.07;;;18.60;99.90;;;;;;5012573;28;20418;-74
2021/06/28 01:30:45;;;;;;;10.23;8.97;;;18.50;99.90;;;;;;5012078;28;21043;-74
2021/06/28 01:33:11;;;;;;;10.50;9.60;;;18.60;99.90;;;;;;5012843;28;20186;-74
2021/06/28 01:35:37;;;;;;;10.60;9.70;;;18.50;99.90;;;;;;5012515;28;20397;-74
2021/06/28 01:38:03;;;;;;;10.17;9.17;;;18.50;99.90;;;;;;5012894;28;20216;-73
2021/06/28 01:40:29;;;;;;;11.57;10.40;;;18.50;99.90;;;;;;5012280;28;20412;-73
2021/06/28 01:42:54;;;;;;;12.27;9.03;;;18.50;99.90;;;;;;5029353;28;20415;-74
2021/06/28 01:45:22;;;;;;;10.43;9.53;;;18.50;99.90;;;;;;5031747;28;20531;-74
2021/06/28 01:47:50;;;;;;;10.87;9.87;;;18.40;99.90;;;;;;5031922;28;20199;-74
2021/06/28 01:50:17;;;;;;;9.97;9.07;;;18.40;99.90;;;;;;5031177;28;20494;-74
2021/06/28 01:52:44;;;;;;;10.90;9.90;;;18.40;99.90;;;;;;5032452;28;20880;-74
2021/06/28 01:55:13;;;;;;;10.53;9.53;;;18.40;99.90;;;;;;5031684;28;20841;-74
2021/06/28 01:57:44;;;;;;;9.70;8.90;;;18.30;99.90;;;;;;5031783;28;20392;-74
2021/06/28 02:00:12;;;;;;;9.40;8.60;;;18.30;99.90;;;;;;5023841;28;20441;-74
2021/06/28 02:02:38;;;;;;;10.17;9.27;;;18.30;99.90;;;;;;5012094;28;20480;-74
2021/06/28 02:05:05;;;;;;;10.20;9.30;;;18.30;99.90;;;;;;5012233;28;20431;-74
2021/06/28 02:07:31;;;;;;;10.53;9.67;;;18.20;99.90;;;;;;5012239;28;20925;-74
2021/06/28 02:09:57;;;;;;;10.70;9.60;;;18.20;99.90;;;;;;5011880;28;20466;-74
2021/06/28 02:12:25;;;;;;;11.37;10.47;;;18.20;99.90;;;;;;5011892;28;20161;-74
2021/06/28 02:14:50;;;;;;;9.87;8.97;;;18.20;99.90;;;;;;5011842;28;20157;-74
2021/06/28 02:17:18;;;;;;;10.43;9.30;;;18.20;99.90;;;;;;5011835;28;20397;-74
2021/06/28 02:19:46;;;;;;;10.07;9.17;;;18.20;99.90;;;;;;5012092;28;20580;-73
2021/06/28 02:22:12;;;;;;;10.47;9.50;;;18.10;99.90;;;;;;5011757;28;20401;-73
2021/06/28 02:24:38;;;;;;;11.50;10.40;;;18.10;99.90;;;;;;5012328;28;20415;-73
2021/06/28 02:27:03;;;;;;;10.23;9.33;;;18.10;99.90;;;;;;5011911;28;20409;-74
2021/06/28 02:29:29;;;;;;;10.83;9.83;;;18.10;99.90;;;;;;5011676;28;20216;-74
2021/06/28 02:31:55;;;;;;;10.30;9.40;;;18.10;99.90;;;;;;5012104;28;20619;-71
2021/06/28 02:34:21;;;;;;;10.00;9.00;;;18.10;99.90;;;;;;5011793;28;20253;-71
2021/06/28 02:36:46;;;;;;;10.77;9.77;;;18.00;99.90;;;;;;5012384;28;20825;-71
2021/06/28 02:39:12;;;;;;;10.30;9.40;;;18.10;99.90;;;;;;5015259;28;20339;-71
2021/06/28 02:41:40;;;;;;;12.03;10.27;;;18.00;99.90;;;;;;5022368;28;20649;-71
2021/06/28 02:44:06;;;;;;;10.90;9.80;;;18.00;99.90;;;;;;5034858;28;20641;-71
2021/06/28 02:46:32;;;;;;;10.70;9.60;;;18.10;99.90;;;;;;5035495;28;20419;-71
2021/06/28 02:48:57;;;;;;;10.80;9.90;;;18.00;99.90;;;;;;5034991;28;20400;-71
2021/06/28 02:51:23;;;;;;;10.00;9.20;;;18.00;99.90;;;;;;5034813;28;20157;-71
2021/06/28 02:53:49;;;;;;;10.50;9.40;;;18.00;99.90;;;;;;5034540;28;20160;-71
2021/06/28 02:56:16;;;;;;;11.13;9.90;;;18.00;99.90;;;;;;5035217;28;20681;-73
2021/06/28 02:58:46;;;;;;;10.43;9.53;;;17.90;99.90;;;;;;5033661;28;20196;-73
2021/06/28 03:01:14;;;;;;;10.87;9.87;;;18.00;99.90;;;;;;5018382;28;20416;-74
2021/06/28 03:03:39;;;;;;;10.50;9.60;;;17.90;99.90;;;;;;5014834;28;20788;-74
2021/06/28 03:06:05;;;;;;;14.87;10.20;;;17.90;99.90;;;;;;5014923;28;20514;-74
2021/06/28 03:08:31;;;;;;;10.47;9.43;;;17.90;99.90;;;;;;5014684;28;20154;-73
2021/06/28 03:10:57;;;;;;;11.30;10.20;;;17.80;99.90;;;;;;5014480;28;20196;-73
2021/06/28 03:13:23;;;;;;;11.67;10.57;;;17.80;99.90;;;;;;5014594;28;20158;-74
2021/06/28 03:15:48;;;;;;;13.27;10.50;;;17.80;99.90;;;;;;5015244;28;20410;-74
2021/06/28 03:18:14;;;;;;;11.87;10.70;;;17.80;99.90;;;;;;5014582;28;20173;-74
2021/06/28 03:20:39;;;;;;;11.30;10.27;;;17.70;99.90;;;;;;5014908;28;20169;-74
2021/06/28 03:23:05;;;;;;;11.53;10.63;;;17.70;99.90;;;;;;5014504;28;20157;-74
2021/06/28 03:25:30;;;;;;;12.50;11.27;;;17.70;99.90;;;;;;5014392;28;20161;-74
2021/06/28 03:27:56;;;;;;;12.10;11.10;;;17.70;99.90;;;;;;5014494;28;20162;-74
2021/06/28 03:30:22;;;;;;;11.37;10.13;;;17.60;99.90;;;;;;5014108;28;20571;-74
2021/06/28 03:32:47;;;;;;;12.10;11.00;;;17.60;99.90;;;;;;5015208;28;20643;-74
2021/06/28 03:35:14;;;;;;;11.80;10.70;;;17.60;99.90;;;;;;5014495;28;20229;-74
2021/06/28 03:37:40;;;;;;;11.93;10.93;;;17.60;99.90;;;;;;5014145;28;20492;-74
2021/06/28 03:40:08;;;;;;;12.10;11.00;;;17.60;99.90;;;;;;5014072;28;20424;-73
2021/06/28 03:42:35;;;;;;;11.70;10.57;;;17.60;99.90;;;;;;5028279;28;20908;-73
2021/06/28 03:45:02;;;;;;;12.20;11.00;;;17.60;99.90;;;;;;5033637;28;20383;-73
2021/06/28 03:47:28;;;;;;;12.20;11.17;;;17.60;99.90;;;;;;5033756;28;20384;-74
2021/06/28 03:49:53;;;;;;;12.80;11.50;;;17.60;99.90;;;;;;5032868;28;20478;-74
2021/06/28 03:52:19;;;;;;;12.90;11.73;;;17.60;99.90;;;;;;5034069;28;20182;-74
2021/06/28 03:54:44;;;;;;;13.10;11.80;;;17.60;99.90;;;;;;5033548;28;20157;-74
2021/06/28 03:57:10;;;;;;;13.07;11.90;;;17.60;99.90;;;;;;5033508;28;20157;-74
2021/06/28 03:59:35;;;;;;;12.90;11.70;;;17.60;99.90;;;;;;5030278;28;20193;-74
2021/06/28 04:02:01;;;;;;;13.30;12.00;;;17.60;99.90;;;;;;5014365;28;20192;-74
2021/06/28 04:04:28;;;;;;;12.73;11.43;;;17.60;99.90;;;;;;5013444;28;20232;-74
2021/06/28 04:06:53;;;;;;;14.57;13.27;;;17.60;99.90;;;;;;5014133;28;20216;-74
2021/06/28 04:09:19;;;;;;;16.23;14.93;;;17.60;99.90;;;;;;5013656;28;20456;-74
2021/06/28 04:11:44;;;;;;;16.13;14.53;;;17.60;99.90;;;;;;5013565;28;20626;-73
2021/06/28 04:14:12;;;;;;;13.50;12.37;;;17.60;99.90;;;;;;5025201;28;20227;-73
2021/06/28 04:16:38;;;;;;;13.43;12.30;;;17.60;99.90;;;;;;5033926;28;20173;-73
2021/06/28 04:19:03;;;;;;;12.70;11.60;;;17.60;99.90;;;;;;5033044;28;20912;-73
2021/06/28 04:21:32;;;;;;;13.47;12.20;;;17.60;99.90;;;;;;5032880;28;20165;-73
2021/06/28 04:23:57;;;;;;;12.93;11.63;;;17.70;99.90;;;;;;5018958;28;20178;-73
2021/06/28 04:26:23;;;;;;;14.53;13.17;;;17.60;99.90;;;;;;5024223;28;20404;-73
2021/06/28 04:28:48;;;;;;;14.10;12.70;;;17.70;99.90;;;;;;5025279;28;20280;-73
2021/06/28 04:31:14;;;;;;;13.30;12.20;;;17.70;99.90;;;;;;5016596;28;20538;-73
2021/06/28 04:33:39;;;;;;;13.50;12.20;;;17.70;99.90;;;;;;5030497;28;20553;-73
2021/06/28 04:36:05;;;;;;;13.60;12.40;;;17.70;99.90;;;;;;5013206;28;20168;-73
2021/06/28 04:38:30;;;;;;;12.60;11.50;;;17.70;99.90;;;;;;5016188;28;20182;-73
2021/06/28 04:40:56;;;;;;;15.00;13.50;;;17.70;99.90;;;;;;5026228;28;20180;-73
2021/06/28 04:43:21;;;;;;;13.00;12.00;;;17.80;99.90;;;;;;5032773;28;20268;-73
2021/06/28 04:45:47;;;;;;;13.97;12.57;;;17.80;99.90;;;;;;5033106;28;20268;-73
2021/06/28 04:48:15;;;;;;;13.13;11.93;;;17.80;99.90;;;;;;5028641;28;20202;-73
2021/06/28 04:50:40;;;;;;;14.43;13.07;;;17.80;99.90;;;;;;5022628;28;20193;-73
2021/06/28 04:53:06;;;;;;;13.80;12.60;;;17.90;99.90;;;;;;5032737;28;20400;-73
2021/06/28 04:55:32;;;;;;;14.80;13.50;;;17.90;99.90;;;;;;5020841;28;20186;-73
2021/06/28 04:57:57;;;;;;;17.20;14.50;;;17.90;99.90;;;;;;5026381;28;20228;-73
2021/06/28 05:00:24;;;;;;;14.53;13.23;;;17.90;99.90;;;;;;5022369;28;20285;-73
2021/06/28 05:02:50;;;;;;;13.97;12.67;;;18.00;99.90;;;;;;5028797;28;20221;-73
2021/06/28 05:05:16;;;;;;;13.50;12.20;;;18.00;99.90;;;;;;5023694;28;20479;-73
2021/06/28 05:07:42;;;;;;;13.37;12.13;;;18.10;99.90;;;;;;5018352;28;20184;-73
2021/06/28 05:10:09;;;;;;;13.00;11.80;;;18.10;99.90;;;;;;5031496;28;20453;-73
2021/06/28 05:12:35;;;;;;;13.93;12.70;;;18.20;99.90;;;;;;5030219;28;20456;-73
2021/06/28 05:15:03;;;;;;;14.40;13.00;;;18.20;99.90;;;;;;5028904;28;20452;-73
2021/06/28 05:17:28;;;;;;;12.57;11.47;;;18.30;99.90;;;;;;5017271;28;20736;-73
2021/06/28 05:19:54;;;;;;;12.57;11.47;;;18.30;99.90;;;;;;5018260;28;20468;-73
2021/06/28 05:22:19;;;;;;;15.00;12.70;;;18.40;99.90;;;;;;5021658;28;20548;-73
2021/06/28 05:24:45;;;;;;;14.23;12.93;;;18.50;99.90;;;;;;5012490;28;20162;-73
2021/06/28 05:27:10;;;;;;;14.87;13.43;;;18.50;99.90;;;;;;5016145;28;20191;-73
2021/06/28 05:29:36;;;;;;;13.60;12.40;;;18.60;99.90;;;;;;5032419;28;20661;-73
2021/06/28 05:32:02;;;;;;;16.20;13.47;;;18.70;99.90;;;;;;5017473;28;20561;-73
2021/06/28 05:34:27;;;;;;;14.50;13.03;;;18.80;99.90;;;;;;5016274;28;20181;-73
2021/06/28 05:36:53;;;;;;;13.97;12.77;;;18.80;99.90;;;;;;5020654;28;20181;-73
2021/06/28 05:39:18;;;;;;;12.30;11.20;;;18.90;99.90;;;;;;5021587;28;20263;-73
2021/06/28 05:41:44;;;;;;;15.03;13.47;;;19.00;99.90;;;;;;5025399;28;20188;-73
2021/06/28 05:44:10;;;;;;;13.67;12.37;;;19.20;99.90;;;;;;5022728;28;20191;-73
2021/06/28 05:46:36;;;;;;;15.20;13.77;;;19.30;99.90;;;;;;5023854;28;20263;-73
2021/06/28 05:49:02;;;;;;;13.27;12.13;;;19.40;99.90;;;;;;5015663;28;20447;-73
2021/06/28 05:51:27;;;;;;;13.60;12.20;;;19.50;99.90;;;;;;5023242;28;20247;-73
2021/06/28 05:53:53;;;;;;;13.00;11.90;;;19.60;99.90;;;;;;5014975;28;20412;-73
2021/06/28 05:56:19;;;;;;;12.97;11.77;;;19.70;99.90;;;;;;5014956;28;20176;-73
2021/06/28 05:58:44;;;;;;;13.60;12.40;;;19.80;99.90;;;;;;5029051;28;20545;-73
2021/06/28 06:01:10;;;;;;;13.13;11.77;;;19.80;99.90;;;;;;5028297;28;20194;-71
2021/06/28 06:03:36;;;;;;;13.50;12.30;;;20.00;99.90;;;;;;5021061;28;20339;-71
2021/06/28 06:06:03;;;;;;;13.33;12.23;;;20.00;99.90;;;;;;5018113;28;20196;-73
2021/06/28 06:08:29;;;;;;;13.23;11.90;;;20.10;99.90;;;;;;5030669;28;20793;-73
2021/06/28 06:10:58;;;;;;;15.20;13.80;;;20.20;99.90;;;;;;5022198;28;20561;-73
2021/06/28 06:13:24;;;;;;;14.30;13.00;;;20.30;99.90;;;;;;5029577;28;20642;-73
2021/06/28 06:15:51;;;;;;;13.67;12.37;;;20.40;99.90;;;;;;5028118;28;20419;-73
2021/06/28 06:18:16;;;;;;;13.23;11.97;;;20.50;99.90;;;;;;5034978;28;20517;-73
2021/06/28 06:20:43;;;;;;;13.03;11.73;;;20.60;99.90;;;;;;5022394;28;20444;-73
2021/06/28 06:23:11;;;;;;;13.10;11.90;;;20.70;99.90;;;;;;5027183;28;20188;-73
2021/06/28 06:25:38;;;;;;;14.20;12.73;;;20.80;99.90;;;;;;5026015;28;20426;-73
2021/06/28 06:28:04;;;;;;;14.80;13.50;;;20.90;99.90;;;;;;5033573;28;20411;-73
2021/06/28 06:30:29;;;;;;;14.93;13.63;;;21.10;99.90;;;;;;5026453;28;20477;-73
2021/06/28 06:32:55;;;;;;;13.00;11.90;;;21.20;99.90;;;;;;5031344;28;20235;-73
2021/06/28 06:35:22;;;;;;;14.60;13.13;;;21.30;99.90;;;;;;5018107;28;20169;-73
2021/06/28 06:37:49;;;;;;;13.47;11.10;;;21.40;99.90;;;;;;5017875;28;20191;-73
2021/06/28 06:40:15;;;;;;;12.50;11.40;;;21.50;99.90;;;;;;5019991;28;20553;-73
2021/06/28 06:42:41;;;;;;;13.27;12.10;;;21.60;99.90;;;;;;5027639;28;20422;-73
2021/06/28 06:45:07;;;;;;;12.93;11.93;;;21.70;99.90;;;;;;5029491;28;20234;-73
2021/06/28 06:47:33;;;;;;;12.43;10.80;;;21.80;99.90;;;;;;5024968;28;20185;-73
2021/06/28 06:49:58;;;;;;;12.57;11.37;;;21.90;99.90;;;;;;5018734;28;20478;-73
2021/06/28 06:52:24;;;;;;;11.87;10.80;;;21.90;99.90;;;;;;5023196;28;20208;-73
2021/06/28 06:54:49;;;;;;;11.30;10.40;;;21.90;99.90;;;;;;5020578;28;20181;-73
2021/06/28 06:57:15;;;;;;;13.63;12.13;;;22.00;99.90;;;;;;5030498;28;20533;-73
2021/06/28 06:59:41;;;;;;;14.30;12.90;;;22.00;99.90;;;;;;5018886;28;20201;-73
2021/06/28 07:02:07;;;;;;;14.23;12.93;;;22.20;99.90;;;;;;5024624;28;20208;-73
2021/06/28 07:04:33;;;;;;;12.90;11.60;;;22.30;99.90;;;;;;5025139;28;20560;-73
2021/06/28 07:07:00;;;;;;;13.60;12.10;;;22.40;99.90;;;;;;5022608;28;20409;-73
2021/06/28 07:09:27;;;;;;;13.73;12.53;;;22.60;99.90;;;;;;5030510;28;20478;-73
2021/06/28 07:11:54;;;;;;;12.37;11.07;;;22.80;99.90;;;;;;5026234;28;20486;-73
2021/06/28 07:14:19;;;;;;;11.90;10.70;;;23.00;99.90;;;;;;5024751;28;20426;-73
2021/06/28 07:16:45;;;;;;;11.00;10.10;;;23.10;99.90;;;;;;5020323;28;20428;-73
2021/06/28 07:19:11;;;;;;;12.37;11.17;;;23.30;99.90;;;;;;5022187;28;20185;-73
2021/06/28 07:21:37;;;;;;;11.47;10.37;;;23.30;99.90;;;;;;5018768;28;20192;-73
2021/06/28 07:24:04;;;;;;;10.97;9.90;;;23.50;99.90;;;;;;5026144;28;20184;-73
2021/06/28 07:26:30;;;;;;;9.40;8.60;;;23.60;99.90;;;;;;5019207;28;20423;-73
2021/06/28 07:28:57;;;;;;;8.97;8.13;;;23.90;99.90;;;;;;5023900;28;20864;-73
2021/06/28 07:31:23;;;;;;;11.30;9.03;;;24.50;99.90;;;;;;5024622;28;20459;-74
2021/06/28 07:33:49;;;;;;;8.43;7.73;;;25.40;99.90;;;;;;5023017;28;20790;-74
2021/06/28 07:36:15;;;;;;;9.80;8.20;;;26.10;99.90;;;;;;5026742;28;20415;-72
2021/06/28 07:38:41;;;;;;;8.67;7.87;;;26.50;99.90;;;;;;5020281;28;20825;-72
2021/06/28 07:41:07;;;;;;;9.20;7.77;;;26.60;99.90;;;;;;5022358;28;20233;-72
2021/06/28 07:43:34;;;;;;;9.00;8.20;;;26.70;99.90;;;;;;5021623;28;20936;-72
2021/06/28 07:46:00;;;;;;;8.40;7.80;;;26.70;99.90;;;;;;5020849;28;20433;-72
2021/06/28 07:48:25;;;;;;;7.43;6.70;;;26.70;99.90;;;;;;5018871;28;20420;-72
2021/06/28 07:50:51;;;;;;;7.87;7.27;;;26.60;99.90;;;;;;5018628;28;20478;-74
2021/06/28 07:53:17;;;;;;;7.63;6.97;;;26.60;99.90;;;;;;5019227;28;20419;-72
2021/06/28 07:55:44;;;;;;;8.80;7.77;;;26.40;99.90;;;;;;5017642;28;20384;-72
2021/06/28 07:58:09;;;;;;;7.37;6.77;;;26.40;99.90;;;;;;5015484;28;20421;-74
2021/06/28 08:00:35;;;;;;;7.30;6.80;;;26.20;99.90;;;;;;5015715;28;20753;-74
2021/06/28 08:03:02;;;;;;;7.73;7.03;;;26.10;99.90;;;;;;5017346;28;20193;-74
2021/06/28 08:05:27;;;;;;;7.27;6.70;;;25.90;99.90;;;;;;5017057;28;20272;-73
2021/06/28 08:07:53;;;;;;;7.87;7.13;;;25.80;99.90;;;;;;5013243;28;20555;-72
2021/06/28 08:10:19;;;;;;;7.83;7.10;;;25.60;99.90;;;;;;5014729;28;20205;-72
2021/06/28 08:12:46;;;;;;;7.97;7.27;;;25.70;99.90;;;;;;5012543;28;20496;-72
2021/06/28 08:15:15;;;;;;;6.77;6.17;;;25.70;99.90;;;;;;5021070;28;20211;-72
2021/06/28 08:17:41;;;;;;;7.40;6.70;;;25.90;99.90;;;;;;5019338;28;20416;-72
2021/06/28 08:20:08;;;;;;;6.93;6.43;;;26.50;99.90;;;;;;5016124;28;20433;-73
2021/06/28 08:22:35;;;;;;;7.50;6.23;;;27.70;99.90;;;;;;5017446;28;20176;-73
2021/06/28 08:25:01;;;;;;;9.33;6.07;;;29.00;99.90;;;;;;5020192;28;20450;-73
2021/06/28 08:27:27;;;;;;;7.20;6.30;;;30.20;99.90;;;;;;5020502;28;21022;-73
2021/06/28 08:29:52;;;;;;;5.87;5.47;;;31.90;96.70;;;;;;5019282;28;20319;-73
2021/06/28 08:32:18;;;;;;;19.73;13.17;;;33.70;89.80;;;;;;5015373;28;20173;-73
2021/06/28 08:34:44;;;;;;;14.40;10.57;;;35.30;73.00;;;;;;5017680;28;20173;-74
2021/06/28 08:37:10;;;;;;;6.67;6.07;;;36.80;62.60;;;;;;5022784;28;20499;-74
2021/06/28 08:39:35;;;;;;;6.37;5.77;;;37.90;53.90;;;;;;5019494;28;20187;-74
2021/06/28 08:42:05;;;;;;;6.47;5.23;;;38.90;50.00;;;;;;5020265;28;20176;-74
2021/06/28 08:44:31;;;;;;;5.60;5.10;;;39.90;48.10;;;;;;5024621;28;20183;-74
2021/06/28 08:46:58;;;;;;;4.87;4.57;;;40.70;47.20;;;;;;5020777;28;20298;-73
2021/06/28 08:49:23;;;;;;;4.90;4.60;;;41.50;44.40;;;;;;5022245;28;20177;-73
2021/06/28 08:51:50;;;;;;;5.20;4.80;;;41.90;42.40;;;;;;5019039;28;20188;-74
2021/06/28 08:54:16;;;;;;;4.83;4.53;;;41.40;40.50;;;;;;5021140;28;20189;-74
2021/06/28 08:56:44;;;;;;;5.90;5.50;;;40.50;42.10;;;;;;5016219;28;20180;-74
2021/06/28 08:59:09;;;;;;;5.73;5.30;;;39.30;43.30;;;;;;5020202;28;20257;-75
2021/06/28 09:01:36;;;;;;;4.93;4.60;;;38.10;44.90;;;;;;5014957;28;20432;-74
2021/06/28 09:04:04;;;;;;;4.83;4.43;;;36.80;47.60;;;;;;5017590;28;20204;-74
2021/06/28 09:06:30;;;;;;;4.70;4.30;;;35.80;49.10;;;;;;5016584;28;20506;-74
2021/06/28 09:08:59;;;;;;;4.30;3.90;;;35.20;48.40;;;;;;5020579;28;20495;-74
2021/06/28 09:11:25;;;;;;;4.60;4.20;;;34.90;47.30;;;;;;5014775;28;20586;-74
2021/06/28 09:13:54;;;;;;;5.67;4.27;;;35.10;50.50;;;;;;5027844;28;20773;-74
2021/06/28 09:19:03;;;;;;;3.73;3.53;;;35.40;47.60;;;;;;5057648;28;20522;-75
2021/06/28 09:24:31;;;;;;;4.87;4.40;;;35.70;49.50;;;;;;5108961;27;21070;-73
2021/06/28 09:29:56;;;;;;;4.37;4.07;;;36.10;48.20;;;;;;5034036;27;21059;-74
2021/06/28 09:32:23;;;;;;;3.73;3.43;;;36.60;44.70;;;;;;5009766;28;20416;-74
2021/06/28 09:34:51;;;;;;;3.13;2.93;;;37.30;44.40;;;;;;5016201;28;20784;-74
2021/06/28 09:37:19;;;;;;;3.60;3.27;;;37.50;42.60;;;;;;5079568;28;20423;-74
2021/06/28 09:39:47;;;;;;;4.30;3.47;;;37.60;42.10;;;;;;5018542;28;20518;-74
2021/06/28 09:42:17;;;;;;;3.67;3.47;;;37.40;41.90;;;;;;5017364;28;20432;-74
2021/06/28 09:47:28;;;;;;;3.20;3.00;;;37.50;42.50;;;;;;5082800;27;20562;-75
2021/06/28 09:55:39;;;;;;;4.10;3.80;;;36.20;47.30;;;;;;5172140;27;20508;-75
2021/06/28 10:00:56;;;;;;;4.10;3.80;;;35.50;48.60;;;;;;5019681;28;21028;-76
2021/06/28 10:03:29;;;;;;;4.07;3.83;;;35.10;49.20;;;;;;5015001;28;21006;-75
2021/06/28 10:06:03;;;;;;;4.07;3.87;;;35.00;49.40;;;;;;5008061;28;20828;-76
2021/06/28 10:08:33;;;;;;;4.07;3.87;;;34.80;50.00;;;;;;5012700;28;20437;-76
2021/06/28 10:14:19;;;;;;;4.70;4.40;;;34.40;50.20;;;;;;5125353;27;20877;-74
2021/06/28 10:16:45;;;;;;;3.90;3.67;;;34.40;52.00;;;;;;5084680;28;20429;-74
2021/06/28 10:19:12;;;;;;;3.90;3.60;;;34.10;51.90;;;;;;5083113;28;20258;-74
2021/06/28 10:21:38;;;;;;;4.53;4.13;;;34.20;52.60;;;;;;5083500;28;20452;-75
2021/06/28 10:24:06;;;;;;;6.63;6.03;;;34.20;51.20;;;;;;5083670;28;20451;-76
2021/06/28 10:26:32;;;;;;;4.50;4.20;;;34.00;51.00;;;;;;5082004;28;20847;-75
2021/06/28 10:28:58;;;;;;;4.27;3.97;;;33.70;51.50;;;;;;5079489;28;20647;-74
2021/06/28 10:31:24;;;;;;;4.50;4.10;;;33.50;53.40;;;;;;5080982;28;20528;-74
2021/06/28 10:33:53;;;;;;;4.57;4.27;;;33.40;55.00;;;;;;5079417;28;20215;-74
2021/06/28 10:36:20;;;;;;;4.43;4.13;;;33.10;53.40;;;;;;5071371;28;20927;-75
2021/06/28 10:38:48;;;;;;;4.70;4.30;;;32.90;54.60;;;;;;5078907;28;20461;-74
2021/06/28 10:41:34;;;;;;;4.20;3.80;;;32.60;53.30;;;;;;5085317;28;20788;-74
2021/06/28 10:44:00;;;;;;;5.00;4.60;;;32.50;56.10;;;;;;5081796;28;20432;-74
2021/06/28 10:46:31;;;;;;;4.67;4.27;;;32.20;54.30;;;;;;5073841;28;20983;-75
2021/06/28 10:48:57;;;;;;;5.43;5.03;;;31.70;54.90;;;;;;5081032;28;20175;-76
2021/06/28 10:54:36;;;;;;;5.77;5.23;;;31.20;57.10;;;;;;5106576;27;20541;-74
2021/06/28 10:57:02;;;;;;;5.50;4.90;;;31.00;58.70;;;;;;5080860;28;20426;-75
2021/06/28 10:59:30;;;;;;;5.87;5.37;;;30.80;58.10;;;;;;5072901;28;20492;-74
2021/06/28 11:04:36;;;;;;;4.60;4.20;;;30.70;59.40;;;;;;5078631;28;20519;-75
2021/06/28 11:09:57;;;;;;;5.33;4.93;;;30.50;59.90;;;;;;5056608;28;20538;-75
2021/06/28 11:12:25;;;;;;;5.13;4.73;;;30.40;62.40;;;;;;5049238;28;20501;-75
2021/06/28 11:25:53;;;;;;;5.67;5.17;;;30.20;62.50;;;;;;5059823;28;20525;-74
2021/06/28 11:31:10;;;;;;;5.67;5.27;;;29.70;63.60;;;;;;5047978;28;20530;-73
2021/06/28 11:36:33;;;;;;;6.67;6.10;;;29.30;72.10;;;;;;5064044;28;20555;-74
2021/06/28 11:39:02;;;;;;;6.60;6.10;;;28.80;75.00;;;;;;5041941;28;20423;-74
2021/06/28 11:41:29;;;;;;;6.37;5.97;;;28.60;78.30;;;;;;5043446;28;20853;-74
2021/06/28 11:43:58;;;;;;;6.87;6.37;;;28.40;82.40;;;;;;5038981;28;20488;-76
2021/06/28 11:49:26;;;;;;;6.20;5.70;;;28.10;83.90;;;;;;5041053;27;21110;-75
2021/06/28 11:51:53;;;;;;;8.97;8.17;;;27.70;88.00;;;;;;5024492;28;20473;-74
2021/06/28 11:54:22;;;;;;;7.77;6.40;;;27.60;92.40;;;;;;5037632;28;20790;-74
2021/06/28 11:59:41;;;;;;;6.87;6.37;;;27.30;99.90;;;;;;5082600;27;20688;-74
2021/06/28 12:02:08;;;;;;;6.10;5.60;;;27.20;99.90;;;;;;5064938;28;20777;-74
2021/06/28 12:04:36;;;;;;;7.17;6.67;;;27.30;99.90;;;;;;5068010;28;20516;-74
2021/06/28 12:07:04;;;;;;;7.13;6.53;;;27.30;99.90;;;;;;5062584;28;20624;-74
2021/06/28 12:09:33;;;;;;;6.53;5.13;;;27.30;99.90;;;;;;5063472;28;20426;-74
2021/06/28 12:12:07;;;;;;;6.47;6.00;;;27.30;99.90;;;;;;5063314;28;20430;-74
2021/06/28 12:14:39;;;;;;;9.90;9.00;;;27.30;99.90;;;;;;5061940;28;20430;-74
2021/06/28 12:17:27;;;;;;;6.90;6.40;;;27.30;99.90;;;;;;5066323;28;20414;-74
2021/06/28 12:22:51;;;;;;;5.77;5.37;;;27.20;99.90;;;;;;5086719;27;20521;-74
2021/06/28 12:25:19;;;;;;;6.70;6.13;;;26.90;99.90;;;;;;5062280;28;20413;-75
2021/06/28 12:27:48;;;;;;;6.20;5.20;;;26.90;99.90;;;;;;5067431;28;20504;-74
2021/06/28 12:30:17;;;;;;;4.50;4.20;;;26.90;99.90;;;;;;5069053;28;20858;-74
2021/06/28 12:35:23;;;;;;;4.70;4.40;;;26.80;99.90;;;;;;5068960;28;20523;-75
2021/06/28 12:37:51;;;;;;;4.50;4.20;;;26.70;99.90;;;;;;5049917;28;20409;-75
2021/06/28 12:45:46;;;;;;;4.47;4.17;;;26.70;99.20;;;;;;5062093;28;20670;-74
2021/06/28 12:50:59;;;;;;;5.93;4.10;;;26.80;98.90;;;;;;5061226;28;20529;-74
2021/06/28 12:53:25;;;;;;;3.90;3.53;;;26.80;99.70;;;;;;5044564;28;20521;-73
2021/06/28 12:56:13;;;;;;;4.10;3.80;;;26.80;97.40;;;;;;5040683;28;20410;-74
2021/06/28 12:58:45;;;;;;;5.00;4.50;;;26.90;99.90;;;;;;5037544;28;20434;-74
2021/06/28 13:01:11;;;;;;;6.03;4.10;;;26.90;98.80;;;;;;5043159;28;20428;-74
2021/06/28 13:03:37;;;;;;;5.50;5.03;;;26.90;97.50;;;;;;5037674;28;20461;-73
2021/06/28 13:06:21;;;;;;;4.30;3.80;;;27.00;98.30;;;;;;5040758;28;20915;-74
2021/06/28 13:08:48;;;;;;;5.03;4.53;;;27.10;98.10;;;;;;5042331;28;20204;-74
2021/06/28 13:11:16;;;;;;;5.67;5.17;;;27.20;97.60;;;;;;5039642;28;20427;-74
2021/06/28 13:16:51;;;;;;;4.17;3.87;;;27.40;97.70;;;;;;5090062;27;20546;-73
2021/06/28 13:19:18;;;;;;;4.90;4.57;;;27.50;96.20;;;;;;5080151;28;20432;-73
2021/06/28 13:24:57;;;;;;;5.80;4.13;;;27.60;95.80;;;;;;5137231;27;21066;-74
2021/06/28 13:27:28;;;;;;;6.70;4.90;;;27.30;96.50;;;;;;5099556;28;20412;-74
2021/06/28 13:29:54;;;;;;;4.63;4.30;;;27.20;96.80;;;;;;5085807;28;20167;-75
2021/06/28 13:32:27;;;;;;;4.30;4.00;;;27.10;97.10;;;;;;5086500;28;20414;-74
2021/06/28 13:34:55;;;;;;;4.23;3.90;;;27.00;95.50;;;;;;5091866;28;20222;-74
2021/06/28 13:43:04;;;;;;;6.07;5.50;;;26.90;98.00;;;;;;5083758;27;21057;-74
2021/06/28 13:45:40;;;;;;;5.00;4.60;;;26.60;99.70;;;;;;5064292;28;20409;-74
2021/06/28 13:48:10;;;;;;;4.60;4.30;;;26.50;98.40;;;;;;5065665;28;20433;-74
2021/06/28 13:50:39;;;;;;;5.33;4.93;;;26.50;98.90;;;;;;5057538;28;20406;-75
2021/06/28 13:56:08;;;;;;;5.23;4.83;;;26.70;98.50;;;;;;5174818;27;20511;-74
2021/06/28 13:58:36;;;;;;;4.87;4.57;;;26.90;99.20;;;;;;5166648;27;20437;-74